Terminal Aerodrome Forecast
Issued by NWS

Home | Current Version | Previous Version | Text Only | Print | Product List | Glossary On
Versions: 1 2 3 4 5 6 7 8 9 10 11 12 13
000
FTUS46 KSTO 211100
TAFSCK
TAF
KSCK 211125Z 2112/2212 00000KT P6SM OVC025
      TEMPO 2112/2116 5SM BR OVC015
     FM212200 VRB05KT P6SM BKN040=

USA.gov is the U.S. government's official web portal to all federal, state and local government web resources and services.